createdAt,value
2019-04-22T00:01:32.420Z,55.70
2019-04-22T00:04:06.992Z,55.50
2019-04-22T00:07:01.346Z,55.60
2019-04-22T00:09:23.992Z,55.70
2019-04-22T00:11:58.949Z,55.70
2019-04-22T00:14:24.651Z,55.80
2019-04-22T00:17:00.454Z,55.90
2019-04-22T00:19:28.938Z,56.20
2019-04-22T00:22:03.044Z,56.20
2019-04-22T00:24:35.517Z,56.30
2019-04-22T00:27:03.850Z,55.60
2019-04-22T00:32:01.907Z,55.40
2019-04-22T00:34:30.218Z,55.40
2019-04-22T00:37:05.523Z,54.70
2019-04-22T00:39:37.977Z,54.10
2019-04-22T00:42:07.791Z,53.70
2019-04-22T00:44:43.258Z,53.40
2019-04-22T00:47:14.572Z,53.10
2019-04-22T00:50:06.683Z,52.50
2019-04-22T00:52:11.731Z,52.60
2019-04-22T00:54:35.737Z,52.50
2019-04-22T00:57:12.277Z,52.50
2019-04-22T00:59:40.381Z,52.40
2019-04-22T01:02:08.826Z,52.50
2019-04-22T01:05:00.759Z,52.40
2019-04-22T01:07:23.652Z,52.10
2019-04-22T01:09:58.882Z,52.50
2019-04-22T01:15:02.048Z,52.80
2019-04-22T01:17:32.897Z,52.80
2019-04-22T01:20:13.917Z,52.80
2019-04-22T01:22:28.537Z,53.10
2019-04-22T01:24:59.293Z,53.10
2019-04-22T01:27:27.670Z,53.10
2019-04-22T01:29:52.614Z,53.30
2019-04-22T01:32:26.223Z,53.40
2019-04-22T01:35:03.562Z,53.30
2019-04-22T01:37:34.830Z,53.30
2019-04-22T01:40:17.807Z,53.00
2019-04-22T01:42:54.416Z,53.40
2019-04-22T01:45:22.256Z,53.50
2019-04-22T01:50:19.971Z,53.40
2019-04-22T01:52:52.094Z,53.50
2019-04-22T01:55:24.938Z,53.20
2019-04-22T01:57:47.542Z,53.40
2019-04-22T02:00:11.090Z,53.40
2019-04-22T02:02:49.237Z,53.40
2019-04-22T02:05:17.699Z,53.60
2019-04-22T02:08:19.836Z,53.50
2019-04-22T02:10:51.977Z,53.40
2019-04-22T02:13:15.372Z,54.00
2019-04-22T02:15:47.852Z,54.00
2019-04-22T02:18:19.760Z,53.90
2019-04-22T02:20:42.997Z,53.80
2019-04-22T02:23:40.893Z,53.50
2019-04-22T02:25:49.874Z,53.70
2019-04-22T02:28:25.691Z,53.40
2019-04-22T02:31:13.865Z,53.30
2019-04-22T02:36:15.109Z,53.40
2019-04-22T02:38:47.079Z,53.70
2019-04-22T02:43:56.856Z,54.50
2019-04-22T02:46:13.418Z,54.70
2019-04-22T02:48:48.216Z,54.70
2019-04-22T02:51:06.974Z,54.80
2019-04-22T02:54:12.017Z,55.10
2019-04-22T03:01:05.440Z,54.80
2019-04-22T03:03:41.789Z,54.80
2019-04-22T03:06:15.421Z,55.20
2019-04-22T03:08:39.402Z,55.30
2019-04-22T03:11:12.653Z,55.20
2019-04-22T03:13:37.742Z,55.20
2019-04-22T03:18:42.151Z,54.90
2019-04-22T03:26:30.761Z,55.30
2019-04-22T03:28:49.827Z,55.40
2019-04-22T03:31:53.718Z,55.30
2019-04-22T03:34:39.376Z,55.30
2019-04-22T03:39:27.728Z,55.50
2019-04-22T03:41:50.085Z,55.80
2019-04-22T03:44:26.999Z,56.00
2019-04-22T03:46:30.449Z,55.70
2019-04-22T03:49:12.082Z,55.40
2019-04-22T03:57:08.041Z,55.30
2019-04-22T03:59:12.110Z,55.30
2019-04-22T04:01:46.409Z,55.50
2019-04-22T04:04:12.946Z,55.30
2019-04-22T04:06:43.215Z,55.30
2019-04-22T04:09:09.423Z,55.60
2019-04-22T04:11:47.653Z,55.80
2019-04-22T04:14:09.295Z,55.80
2019-04-22T04:16:45.953Z,56.00
2019-04-22T04:19:28.163Z,56.20
2019-04-22T04:21:33.044Z,56.20
2019-04-22T04:24:28.642Z,56.30
2019-04-22T04:26:59.245Z,56.50
2019-04-22T04:29:27.815Z,56.60
2019-04-22T04:31:53.308Z,56.70
2019-04-22T04:36:37.030Z,56.90
2019-04-22T04:39:05.749Z,57.80
2019-04-22T04:44:10.816Z,57.40
2019-04-22T04:46:37.641Z,57.30
2019-04-22T04:52:03.960Z,56.50
2019-04-22T04:57:23.954Z,56.70
2019-04-22T05:02:05.581Z,56.90
2019-04-22T05:04:51.199Z,57.10
2019-04-22T05:07:09.035Z,57.30
2019-04-22T05:12:25.485Z,57.40
2019-04-22T05:14:36.826Z,56.90
2019-04-22T05:19:39.386Z,55.60
2019-04-22T05:22:28.000Z,54.50
2019-04-22T05:24:44.321Z,53.70
2019-04-22T05:30:00.146Z,53.00
2019-04-22T05:32:14.412Z,52.70
2019-04-22T05:34:41.231Z,52.20
2019-04-22T05:37:14.870Z,52.20
2019-04-22T05:39:42.361Z,52.10
2019-04-22T05:42:16.031Z,51.90
2019-04-22T05:44:48.021Z,51.70
2019-04-22T05:47:14.931Z,51.40
2019-04-22T05:49:41.557Z,51.30
2019-04-22T05:52:17.365Z,51.20
2019-04-22T05:54:38.638Z,51.00
2019-04-22T05:57:16.787Z,51.20
2019-04-22T05:59:45.726Z,50.80
2019-04-22T06:02:24.779Z,50.60
2019-04-22T06:04:48.393Z,50.50
2019-04-22T06:07:13.617Z,50.30
2019-04-22T06:09:43.370Z,49.90
2019-04-22T06:12:12.560Z,49.90
2019-04-22T06:14:54.272Z,49.90
2019-04-22T06:17:24.757Z,49.90
2019-04-22T06:19:54.158Z,49.80
2019-04-22T06:22:34.972Z,49.60
2019-04-22T06:24:55.398Z,49.50
2019-04-22T06:27:28.868Z,49.70
2019-04-22T06:29:55.298Z,49.70
2019-04-22T06:35:01.964Z,49.60
2019-04-22T06:37:59.482Z,49.60
2019-04-22T06:39:59.344Z,49.50
2019-04-22T06:42:51.867Z,49.60
2019-04-22T06:45:30.615Z,49.60
2019-04-22T06:50:36.837Z,49.20
2019-04-22T06:53:03.056Z,49.40
2019-04-22T06:55:40.194Z,49.10
2019-04-22T06:58:04.843Z,49.10
2019-04-22T07:00:38.361Z,49.00
2019-04-22T07:03:37.458Z,48.70
2019-04-22T07:05:43.121Z,48.50
2019-04-22T07:08:34.590Z,47.90
2019-04-22T07:10:43.430Z,47.80
2019-04-22T07:13:10.629Z,47.60
2019-04-22T07:18:11.205Z,47.00
2019-04-22T07:20:48.270Z,46.50
2019-04-22T07:23:19.513Z,46.60
2019-04-22T07:25:43.674Z,47.00
2019-04-22T07:30:57.756Z,45.60
2019-04-22T07:35:57.256Z,44.80
2019-04-22T07:38:18.682Z,44.70
2019-04-22T07:40:54.427Z,44.50
2019-04-22T07:43:19.989Z,44.50
2019-04-22T07:46:00.608Z,44.10
2019-04-22T07:48:26.548Z,44.10
2019-04-22T07:53:19.827Z,43.40
2019-04-22T07:55:47.547Z,43.40
2019-04-22T07:58:18.259Z,43.00
2019-04-22T08:00:53.047Z,42.60
2019-04-22T08:05:58.781Z,42.30
2019-04-22T08:10:58.020Z,42.80
2019-04-22T08:13:25.194Z,42.10
2019-04-22T08:15:54.178Z,42.00
2019-04-22T08:20:56.785Z,41.40
2019-04-22T08:23:28.713Z,41.60
2019-04-22T08:25:55.763Z,41.80
2019-04-22T08:33:29.569Z,40.70
2019-04-22T08:38:48.317Z,40.10
2019-04-22T08:41:30.200Z,40.70
2019-04-22T08:43:57.439Z,40.70
2019-04-22T08:46:28.491Z,39.70
2019-04-22T08:56:29.890Z,38.80
2019-04-22T08:58:57.070Z,38.70
2019-04-22T09:01:25.273Z,39.10
2019-04-22T09:03:58.405Z,39.20
2019-04-22T09:11:26.756Z,39.30
2019-04-22T09:13:55.836Z,37.80
2019-04-22T09:16:33.378Z,37.80
2019-04-22T09:24:00.761Z,38.00
2019-04-22T09:26:30.727Z,37.30
2019-04-22T09:29:02.830Z,37.70
2019-04-22T09:31:31.875Z,37.80
2019-04-22T09:33:53.272Z,37.90
2019-04-22T09:39:00.646Z,38.70
2019-04-22T09:41:31.913Z,38.40
2019-04-22T09:46:39.136Z,38.20
2019-04-22T09:49:06.475Z,38.10
2019-04-22T09:51:30.738Z,37.60
2019-04-22T09:54:12.392Z,37.20
2019-04-22T09:56:42.152Z,37.50
2019-04-22T09:59:07.639Z,37.50
2019-04-22T10:01:56.877Z,37.30
2019-04-22T10:06:33.773Z,37.00
2019-04-22T10:09:26.989Z,37.40
2019-04-22T10:11:38.859Z,37.10
2019-04-22T10:14:08.754Z,36.80
2019-04-22T10:16:39.331Z,36.90
2019-04-22T10:21:44.712Z,37.00
2019-04-22T10:24:09.073Z,36.50
2019-04-22T10:26:39.171Z,36.50
2019-04-22T10:29:10.749Z,37.00
2019-04-22T10:33:56.112Z,37.10
2019-04-22T10:36:17.180Z,37.20
2019-04-22T10:38:46.588Z,37.00
2019-04-22T10:41:16.589Z,37.00
2019-04-22T10:43:45.426Z,36.90
2019-04-22T10:46:34.010Z,37.00
2019-04-22T10:49:04.144Z,37.60
2019-04-22T10:51:33.042Z,38.20
2019-04-22T10:54:01.883Z,38.70
2019-04-22T10:56:30.820Z,38.30
2019-04-22T10:59:00.502Z,37.20
2019-04-22T11:01:29.638Z,37.80
2019-04-22T11:03:59.599Z,38.20
2019-04-22T11:06:29.468Z,38.80
2019-04-22T11:09:03.157Z,37.60
2019-04-22T11:11:41.149Z,37.20
2019-04-22T11:14:00.124Z,37.00
2019-04-22T11:16:29.887Z,36.90
2019-04-22T11:18:59.315Z,37.20
2019-04-22T11:21:29.474Z,37.80
2019-04-22T11:23:58.748Z,37.90
2019-04-22T11:26:28.278Z,37.10
2019-04-22T11:28:59.347Z,36.90
2019-04-22T11:31:28.616Z,37.50
2019-04-22T11:33:58.518Z,37.20
2019-04-22T11:36:30.210Z,37.20
2019-04-22T11:39:01.993Z,37.10
2019-04-22T11:41:28.922Z,37.10
2019-04-22T11:43:59.021Z,36.90
2019-04-22T11:46:29.370Z,37.50
2019-04-22T11:48:58.406Z,37.70
2019-04-22T11:51:27.594Z,37.20
2019-04-22T11:53:56.759Z,37.10
2019-04-22T11:56:27.136Z,37.50
2019-04-22T11:58:57.070Z,37.20
2019-04-22T12:01:26.667Z,37.00
2019-04-22T12:03:55.895Z,37.30
2019-04-22T12:06:26.321Z,37.10
2019-04-22T12:08:55.319Z,37.50
2019-04-22T12:11:24.136Z,38.10
2019-04-22T12:13:54.011Z,37.50
2019-04-22T12:16:23.321Z,37.70
2019-04-22T12:18:53.532Z,37.60
2019-04-22T12:21:23.409Z,37.70
2019-04-22T12:23:55.009Z,38.00
2019-04-22T12:26:25.470Z,38.20
2019-04-22T12:28:55.088Z,38.70
2019-04-22T12:31:43.298Z,38.80
2019-04-22T12:34:13.207Z,38.00
2019-04-22T12:36:44.837Z,38.10
2019-04-22T12:39:13.772Z,37.80
2019-04-22T12:41:42.570Z,37.70
2019-04-22T12:44:13.336Z,38.00
2019-04-22T12:46:43.955Z,38.20
2019-04-22T12:49:14.178Z,38.20
2019-04-22T12:51:43.186Z,38.10
2019-04-22T12:54:13.134Z,37.70
2019-04-22T12:56:43.829Z,37.80
2019-04-22T12:59:13.837Z,38.10
2019-04-22T13:01:42.822Z,37.90
2019-04-22T13:04:15.283Z,37.10
2019-04-22T13:06:42.098Z,36.70
2019-04-22T13:09:12.500Z,37.20
2019-04-22T13:11:42.704Z,37.10
2019-04-22T13:14:12.733Z,37.70
2019-04-22T13:16:42.837Z,37.90
2019-04-22T13:19:13.694Z,37.70
2019-04-22T13:21:42.749Z,37.90
2019-04-22T13:24:13.124Z,37.40
2019-04-22T13:26:43.289Z,37.80
2019-04-22T13:29:12.875Z,37.90
2019-04-22T13:31:44.765Z,38.00
2019-04-22T13:34:21.610Z,38.00
2019-04-22T13:36:44.901Z,37.40
2019-04-22T13:39:13.302Z,37.40
2019-04-22T13:41:48.767Z,37.20
2019-04-22T13:44:12.824Z,37.50
2019-04-22T13:47:04.096Z,37.80
2019-04-22T13:49:44.878Z,37.50
2019-04-22T13:52:29.225Z,37.80
2019-04-22T13:57:19.791Z,37.70
2019-04-22T13:59:43.007Z,37.80
2019-04-22T14:02:24.364Z,37.40
2019-04-22T14:04:54.906Z,37.10
2019-04-22T14:07:24.838Z,37.10
2019-04-22T14:09:54.010Z,36.70
2019-04-22T14:12:22.937Z,37.10
2019-04-22T14:14:52.619Z,36.30
2019-04-22T14:17:22.973Z,36.50
2019-04-22T14:19:52.810Z,36.70
2019-04-22T14:22:22.042Z,36.30
2019-04-22T14:24:52.240Z,36.50
2019-04-22T14:27:30.699Z,36.30
2019-04-22T14:29:51.643Z,35.90
2019-04-22T14:32:27.023Z,35.60
2019-04-22T14:34:51.153Z,35.90
2019-04-22T14:37:20.322Z,35.90
2019-04-22T14:39:49.270Z,36.00
2019-04-22T14:42:34.356Z,36.10
2019-04-22T14:47:47.975Z,35.60
2019-04-22T14:50:14.475Z,35.90
2019-04-22T14:52:39.618Z,35.60
2019-04-22T14:55:03.025Z,35.70
2019-04-22T14:57:21.398Z,35.90
2019-04-22T14:59:50.387Z,35.70
2019-04-22T15:02:21.540Z,35.10
2019-04-22T15:04:51.938Z,34.30
2019-04-22T15:07:21.132Z,34.80
2019-04-22T15:09:50.380Z,34.80
2019-04-22T15:12:30.014Z,35.00
2019-04-22T15:14:51.071Z,34.80
2019-04-22T15:17:29.190Z,34.50
2019-04-22T15:20:05.949Z,34.30
2019-04-22T15:22:34.691Z,34.40
2019-04-22T15:25:22.996Z,34.00
2019-04-22T15:27:53.294Z,34.20
2019-04-22T15:30:23.536Z,34.00
2019-04-22T15:32:53.585Z,34.60
2019-04-22T15:35:31.371Z,34.20
2019-04-22T15:38:01.492Z,33.70
2019-04-22T15:40:31.000Z,32.70
2019-04-22T15:43:00.111Z,32.80
2019-04-22T15:45:28.835Z,33.30
2019-04-22T15:47:57.976Z,33.60
2019-04-22T15:50:26.786Z,33.20
2019-04-22T15:52:58.873Z,33.30
2019-04-22T15:55:27.128Z,33.40
2019-04-22T15:57:55.815Z,33.40
2019-04-22T16:00:35.540Z,33.80
2019-04-22T16:02:55.291Z,34.20
2019-04-22T16:05:24.637Z,34.30
2019-04-22T16:07:54.900Z,34.20
2019-04-22T16:10:23.998Z,34.00
2019-04-22T16:13:00.605Z,34.50
2019-04-22T16:15:24.538Z,34.80
2019-04-22T16:17:55.012Z,35.30
2019-04-22T16:20:23.869Z,34.90
2019-04-22T16:23:10.871Z,34.80
2019-04-22T16:25:47.247Z,34.50
2019-04-22T16:28:17.458Z,34.30
2019-04-22T16:30:46.199Z,34.30
2019-04-22T16:33:15.271Z,34.10
2019-04-22T16:35:44.923Z,34.60
2019-04-22T16:38:15.116Z,34.40
2019-04-22T16:40:45.005Z,34.40
2019-04-22T16:43:13.975Z,34.10
2019-04-22T16:45:43.473Z,34.60
2019-04-22T16:48:13.649Z,34.10
2019-04-22T16:50:45.022Z,34.40
2019-04-22T16:53:14.219Z,34.90
2019-04-22T16:55:44.559Z,34.80
2019-04-22T16:58:14.809Z,35.10
2019-04-22T17:00:45.002Z,35.20
2019-04-22T17:03:16.432Z,34.60
2019-04-22T17:05:56.212Z,34.90
2019-04-22T17:08:26.578Z,35.00
2019-04-22T17:10:55.828Z,35.50
2019-04-22T17:13:28.582Z,35.30
2019-04-22T17:15:58.581Z,35.20
2019-04-22T17:18:25.600Z,35.40
2019-04-22T17:20:54.985Z,35.70
2019-04-22T17:23:25.587Z,35.60
2019-04-22T17:25:56.569Z,35.30
2019-04-22T17:28:25.807Z,36.10
2019-04-22T17:30:54.600Z,36.10
2019-04-22T17:33:23.382Z,36.20
2019-04-22T17:35:52.802Z,36.30
2019-04-22T17:38:30.158Z,36.60
2019-04-22T17:41:09.031Z,37.20
2019-04-22T17:43:54.344Z,37.40
2019-04-22T17:46:17.967Z,36.90
2019-04-22T17:48:53.085Z,37.00
2019-04-22T17:51:36.783Z,37.30
2019-04-22T17:54:02.669Z,37.40
2019-04-22T17:56:32.483Z,37.40
2019-04-22T17:59:17.199Z,37.70
2019-04-22T18:01:29.257Z,38.00
2019-04-22T18:04:04.614Z,38.10
2019-04-22T18:06:55.111Z,38.10
2019-04-22T18:09:19.436Z,38.30
2019-04-22T18:11:54.282Z,38.30
2019-04-22T18:14:34.988Z,38.50
2019-04-22T18:17:11.412Z,38.70
2019-04-22T18:19:40.233Z,38.80
2019-04-22T18:22:10.914Z,39.20
2019-04-22T18:24:58.397Z,39.20
2019-04-22T18:29:55.557Z,39.90
2019-04-22T18:32:25.550Z,40.00
2019-04-22T18:34:53.210Z,39.80
2019-04-22T18:37:37.850Z,39.90
2019-04-22T18:40:05.036Z,40.10
2019-04-22T18:42:25.707Z,40.20
2019-04-22T18:45:19.847Z,40.10
2019-04-22T18:47:29.446Z,40.40
2019-04-22T18:50:00.801Z,40.40
2019-04-22T18:53:00.090Z,40.50
2019-04-22T18:55:38.808Z,40.80
2019-04-22T18:58:08.505Z,40.90
2019-04-22T19:00:41.866Z,41.10
2019-04-22T19:03:16.481Z,41.10
2019-04-22T19:06:09.418Z,41.50
2019-04-22T19:08:34.576Z,41.70
2019-04-22T19:11:08.561Z,41.50
2019-04-22T19:14:01.022Z,41.60
2019-04-22T19:18:39.586Z,41.70
2019-04-22T19:21:13.080Z,41.80
2019-04-22T19:23:40.830Z,42.00
2019-04-22T19:26:07.089Z,41.90
2019-04-22T19:28:42.572Z,41.80
2019-04-22T19:31:17.299Z,41.90
2019-04-22T19:33:39.989Z,41.80
2019-04-22T19:36:11.643Z,41.90
2019-04-22T19:38:28.684Z,42.20
2019-04-22T19:41:13.538Z,43.00
2019-04-22T19:43:38.951Z,42.30
2019-04-22T19:46:28.209Z,42.60
2019-04-22T19:49:06.682Z,42.50
2019-04-22T19:51:36.715Z,42.90
2019-04-22T19:54:01.455Z,43.10
2019-04-22T19:56:22.758Z,43.10
2019-04-22T19:59:00.566Z,43.40
2019-04-22T20:01:31.465Z,43.50
2019-04-22T20:06:38.359Z,44.00
2019-04-22T20:09:13.617Z,44.60
2019-04-22T20:11:41.762Z,44.80
2019-04-22T20:14:12.732Z,45.00
2019-04-22T20:16:37.420Z,45.00
2019-04-22T20:19:23.909Z,45.00
2019-04-22T20:21:43.526Z,45.00
2019-04-22T20:24:02.039Z,45.10
2019-04-22T20:26:45.563Z,45.40
2019-04-22T20:29:22.832Z,45.50
2019-04-22T20:31:44.217Z,45.70
2019-04-22T20:34:21.610Z,45.60
2019-04-22T20:37:01.695Z,45.90
2019-04-22T20:39:10.863Z,46.10
2019-04-22T20:41:36.668Z,46.10
2019-04-22T20:44:19.145Z,46.20
2019-04-22T20:46:49.312Z,46.40
2019-04-22T20:49:27.625Z,46.50
2019-04-22T20:52:00.266Z,46.40
2019-04-22T20:54:22.990Z,46.50
2019-04-22T20:56:49.714Z,46.40
2019-04-22T20:59:24.309Z,46.50
2019-04-22T21:01:51.800Z,46.60
2019-04-22T21:04:11.486Z,46.30
2019-04-22T21:06:54.322Z,46.20
2019-04-22T21:09:28.395Z,46.40
2019-04-22T21:11:52.318Z,46.40
2019-04-22T21:14:21.560Z,46.50
2019-04-22T21:16:55.982Z,46.40
2019-04-22T21:19:38.184Z,46.50
2019-04-22T21:21:59.713Z,46.50
2019-04-22T21:24:23.780Z,46.60
2019-04-22T21:26:56.641Z,46.40
2019-04-22T21:29:29.582Z,46.60
2019-04-22T21:31:54.641Z,46.50
2019-04-22T21:34:26.275Z,46.90
2019-04-22T21:37:04.321Z,46.30
2019-04-22T21:39:26.289Z,46.40
2019-04-22T21:41:58.744Z,46.30
2019-04-22T21:44:32.330Z,46.30
2019-04-22T21:47:12.967Z,46.50
2019-04-22T21:49:35.899Z,46.50
2019-04-22T21:52:01.599Z,46.50
2019-04-22T21:54:31.574Z,46.40
2019-04-22T21:57:24.589Z,46.30
2019-04-22T21:59:47.316Z,46.30
2019-04-22T22:02:25.219Z,46.50
2019-04-22T22:04:47.322Z,46.50
2019-04-22T22:07:09.724Z,46.50
2019-04-22T22:09:50.717Z,46.70
2019-04-22T22:12:17.586Z,46.60
2019-04-22T22:14:58.823Z,47.20
2019-04-22T22:17:25.251Z,46.80
2019-04-22T22:19:49.873Z,46.60
2019-04-22T22:24:56.506Z,46.70
2019-04-22T22:27:25.100Z,46.80
2019-04-22T22:32:30.269Z,46.80
2019-04-22T22:34:58.408Z,46.80
2019-04-22T22:37:13.315Z,46.80
2019-04-22T22:39:47.474Z,47.00
2019-04-22T22:42:10.898Z,47.00
2019-04-22T22:44:42.152Z,47.00
2019-04-22T22:47:24.231Z,47.00
2019-04-22T22:49:57.612Z,46.90
2019-04-22T22:55:00.405Z,47.10
2019-04-22T22:57:33.745Z,47.20
2019-04-22T23:00:01.552Z,47.10
2019-04-22T23:02:28.699Z,47.20
2019-04-22T23:05:05.869Z,47.40
2019-04-22T23:07:37.503Z,47.40
2019-04-22T23:10:01.633Z,47.50
2019-04-22T23:12:46.618Z,47.50
2019-04-22T23:14:59.085Z,47.50
2019-04-22T23:17:18.780Z,47.50
2019-04-22T23:19:48.707Z,47.70
2019-04-22T23:22:25.205Z,47.70
2019-04-22T23:25:14.920Z,47.80
2019-04-22T23:27:38.528Z,48.00
2019-04-22T23:30:05.366Z,48.10
2019-04-22T23:32:42.602Z,47.90
2019-04-22T23:35:26.967Z,48.10
2019-04-22T23:37:56.414Z,48.20
2019-04-22T23:40:55.569Z,48.10
2019-04-22T23:43:18.190Z,48.00
2019-04-22T23:45:51.466Z,48.60
2019-04-22T23:48:20.530Z,48.60
2019-04-22T23:50:57.442Z,48.80
2019-04-22T23:53:42.318Z,48.90
2019-04-22T23:56:00.257Z,49.10
2019-04-22T23:58:52.639Z,49.00
